Time;durP1;ratioP1;P1;durP2;ratioP2;P2;SDS_P1;SDS_P2;PMS_P1;PMS_P2;Temp;Humidity;BMP_temperature;BMP_pressure;BME280_temperature;BME280_humidity;BME280_pressure;Samples;Min_cycle;Max_cycle;Signal;HPM_P1;HPM_P2
2022/10/11 00:01:59;;;;;;;36.55;24.83;;;12.70;99.90;;;;;;4790664;29;20069;-67
2022/10/11 00:04:25;;;;;;;35.70;25.13;;;12.70;99.90;;;;;;4792434;29;20064;-67
2022/10/11 00:06:51;;;;;;;35.13;23.77;;;12.80;99.90;;;;;;4786855;29;20039;-67
2022/10/11 00:09:17;;;;;;;34.22;24.00;;;12.80;99.90;;;;;;4789963;29;20119;-68
2022/10/11 00:11:43;;;;;;;38.75;25.27;;;12.80;99.90;;;;;;4787212;29;20035;-67
2022/10/11 00:14:09;;;;;;;37.38;24.50;;;12.80;99.90;;;;;;4787934;29;20102;-69
2022/10/11 00:16:37;;;;;;;38.17;23.60;;;12.80;99.90;;;;;;4787800;29;20027;-67
2022/10/11 00:19:03;;;;;;;41.60;24.98;;;12.70;99.90;;;;;;4787176;29;20024;-67
2022/10/11 00:21:30;;;;;;;38.40;26.40;;;12.80;99.90;;;;;;4786892;29;20057;-67
2022/10/11 00:23:56;;;;;;;33.80;24.73;;;12.80;99.90;;;;;;4787188;29;20023;-66
2022/10/11 00:26:22;;;;;;;36.78;24.83;;;12.80;99.90;;;;;;4770495;29;20100;-67
2022/10/11 00:28:51;;;;;;;32.03;22.58;;;12.80;99.90;;;;;;4787304;29;20043;-67
2022/10/11 00:31:17;;;;;;;31.40;21.83;;;12.70;99.90;;;;;;4786551;29;20031;-67
2022/10/11 00:33:43;;;;;;;32.08;23.80;;;12.70;99.90;;;;;;4786919;29;20028;-67
2022/10/11 00:36:12;;;;;;;33.67;24.70;;;12.70;99.90;;;;;;4786629;29;20466;-67
2022/10/11 00:38:38;;;;;;;36.60;26.02;;;12.60;99.90;;;;;;4786831;29;20031;-68
2022/10/11 00:41:04;;;;;;;40.30;28.75;;;12.40;99.90;;;;;;4786103;29;20398;-67
2022/10/11 00:43:31;;;;;;;40.45;28.27;;;12.40;99.90;;;;;;4786438;29;20031;-67
2022/10/11 00:45:58;;;;;;;41.83;29.17;;;12.40;99.90;;;;;;4786550;29;20034;-67
2022/10/11 00:48:42;;;;;;;38.75;28.88;;;12.40;99.90;;;;;;4786422;29;20046;-67
2022/10/11 00:51:17;;;;;;;37.72;29.05;;;12.40;99.90;;;;;;4786402;29;20043;-67
2022/10/11 00:53:44;;;;;;;36.17;27.58;;;12.40;99.90;;;;;;4786276;29;20087;-67
2022/10/11 00:56:17;;;;;;;42.20;29.80;;;12.40;99.90;;;;;;4786455;29;20869;-67
2022/10/11 00:58:44;;;;;;;39.45;27.55;;;12.50;99.90;;;;;;4785989;29;20166;-68
2022/10/11 01:01:10;;;;;;;36.65;27.15;;;12.50;99.90;;;;;;4755186;30;20495;-67
2022/10/11 01:03:38;;;;;;;38.50;27.25;;;12.40;99.90;;;;;;4785894;29;20252;-68
2022/10/11 01:06:04;;;;;;;43.22;28.60;;;12.50;99.90;;;;;;4786084;29;20027;-67
2022/10/11 01:08:30;;;;;;;38.85;26.25;;;12.50;99.90;;;;;;4786140;29;20436;-67
2022/10/11 01:10:57;;;;;;;38.17;25.23;;;12.50;99.90;;;;;;4786324;29;20582;-67
2022/10/11 01:13:42;;;;;;;37.20;26.52;;;12.60;99.90;;;;;;4785926;29;20395;-67
2022/10/11 01:16:19;;;;;;;36.28;24.98;;;12.60;99.90;;;;;;4782978;29;20020;-68
2022/10/11 01:19:05;;;;;;;45.67;26.42;;;12.70;99.90;;;;;;4783253;29;20126;-67
2022/10/11 01:21:31;;;;;;;36.35;24.55;;;12.60;99.90;;;;;;4785043;29;20474;-67
2022/10/11 01:24:00;;;;;;;31.27;22.25;;;12.70;99.90;;;;;;4786266;29;20019;-67
2022/10/11 01:27:12;;;;;;;37.90;24.88;;;12.70;99.90;;;;;;4782818;29;20145;-67
2022/10/11 01:29:55;;;;;;;36.40;24.52;;;12.70;99.90;;;;;;4707994;30;20185;-68
2022/10/11 01:32:26;;;;;;;;;;;12.60;99.90;;;;;;4715155;30;20037;-67
2022/10/11 01:34:58;;;;;;;41.10;25.70;;;12.70;99.90;;;;;;4713159;30;20337;-67
2022/10/11 01:37:36;;;;;;;39.72;24.67;;;12.70;99.90;;;;;;4713024;30;20192;-67
2022/10/11 01:40:08;;;;;;;35.92;25.25;;;12.60;99.90;;;;;;4712938;30;20183;-67
2022/10/11 01:42:37;;;;;;;37.47;26.42;;;12.50;99.90;;;;;;4712978;30;20135;-68
2022/10/11 01:45:06;;;;;;;36.88;26.88;;;12.40;99.90;;;;;;4713105;30;20029;-67
2022/10/11 01:47:32;;;;;;;39.85;28.27;;;12.40;99.90;;;;;;4715213;30;20052;-67
2022/10/11 01:50:00;;;;;;;38.47;27.35;;;12.40;99.90;;;;;;4712867;30;20033;-67
2022/10/11 01:52:29;;;;;;;39.40;28.38;;;12.40;99.90;;;;;;4713179;30;20149;-66
2022/10/11 01:55:05;;;;;;;34.70;25.20;;;12.40;99.90;;;;;;4716748;30;20848;-66
2022/10/11 01:57:58;;;;;;;39.47;29.05;;;12.40;99.90;;;;;;4716299;30;20560;-67
2022/10/11 02:00:25;;;;;;;;;;;12.40;99.90;;;;;;4720268;30;20136;-67
2022/10/11 02:03:23;;;;;;;37.28;25.13;;;12.40;99.90;;;;;;4716248;30;19914;-66
2022/10/11 02:06:03;;;;;;;39.00;28.13;;;12.40;99.90;;;;;;4737284;29;20510;-66
2022/10/11 02:08:41;;;;;;;35.65;26.10;;;12.30;99.90;;;;;;4771910;29;20039;-67
2022/10/11 02:11:30;;;;;;;41.08;26.80;;;12.40;99.90;;;;;;4789114;29;20029;-66
2022/10/11 02:14:24;;;;;;;39.63;26.80;;;12.40;99.90;;;;;;4785249;29;20318;-67
2022/10/11 02:17:06;;;;;;;33.70;25.30;;;12.40;99.90;;;;;;4787646;29;20058;-67
2022/10/11 02:19:37;;;;;;;40.40;26.55;;;12.40;99.90;;;;;;4789221;29;20039;-66
2022/10/11 02:22:08;;;;;;;35.83;24.45;;;12.40;99.90;;;;;;4789169;29;20051;-67
2022/10/11 02:24:39;;;;;;;37.38;25.42;;;12.40;99.90;;;;;;4788881;29;20034;-67
2022/10/11 02:27:06;;;;;;;34.17;25.15;;;12.50;99.90;;;;;;4788710;29;20118;-66
2022/10/11 02:29:36;;;;;;;38.00;27.05;;;12.40;99.90;;;;;;4788873;29;20027;-67
2022/10/11 02:32:04;;;;;;;40.08;23.50;;;12.40;99.90;;;;;;4785354;29;20027;-67
2022/10/11 02:34:43;;;;;;;39.10;23.67;;;12.40;99.90;;;;;;4788672;29;20023;-67
2022/10/11 02:37:14;;;;;;;35.40;23.00;;;12.50;99.90;;;;;;4788328;29;20043;-66
2022/10/11 02:39:51;;;;;;;36.47;23.48;;;12.40;99.90;;;;;;4788638;29;20069;-67
2022/10/11 02:42:29;;;;;;;33.80;22.10;;;12.50;99.90;;;;;;4788402;29;20055;-67
2022/10/11 02:45:08;;;;;;;40.50;22.65;;;12.40;99.90;;;;;;4788500;29;20047;-67
2022/10/11 02:47:34;;;;;;;38.00;24.80;;;12.40;99.90;;;;;;4785292;29;20050;-68
2022/10/11 02:50:01;;;;;;;36.65;24.60;;;12.40;99.90;;;;;;4788485;29;20479;-67
2022/10/11 02:52:27;;;;;;;31.98;22.33;;;12.40;99.90;;;;;;4788385;29;20035;-67
2022/10/11 02:54:52;;;;;;;29.85;21.50;;;12.40;99.90;;;;;;4788606;29;20019;-67
2022/10/11 02:57:18;;;;;;;35.20;22.80;;;12.40;99.90;;;;;;4788138;29;20048;-67
2022/10/11 02:59:44;;;;;;;31.88;22.80;;;12.40;99.90;;;;;;4787856;29;20059;-66
2022/10/11 03:02:10;;;;;;;36.42;23.05;;;12.40;99.90;;;;;;4788112;29;20043;-67
2022/10/11 03:04:36;;;;;;;29.85;22.45;;;12.40;99.90;;;;;;4787904;29;20495;-67
2022/10/11 03:07:02;;;;;;;34.42;22.85;;;12.50;99.90;;;;;;4787998;29;20047;-66
2022/10/11 03:09:28;;;;;;;29.92;22.73;;;12.50;99.90;;;;;;4786220;29;20027;-67
2022/10/11 03:11:54;;;;;;;32.80;22.17;;;12.50;99.90;;;;;;4788360;29;20058;-67
2022/10/11 03:14:20;;;;;;;31.48;21.33;;;12.50;99.90;;;;;;4787950;29;20067;-67
2022/10/11 03:16:46;;;;;;;30.73;22.33;;;12.40;99.90;;;;;;4787829;29;20122;-67
2022/10/11 03:19:12;;;;;;;28.00;20.92;;;12.40;99.90;;;;;;4788459;29;20126;-66
2022/10/11 03:21:38;;;;;;;31.45;21.38;;;12.40;99.90;;;;;;4787934;29;20045;-67
2022/10/11 03:24:03;;;;;;;29.85;21.05;;;12.40;99.90;;;;;;4788118;29;20031;-68
2022/10/11 03:26:29;;;;;;;25.63;19.80;;;12.50;99.90;;;;;;4788049;29;20425;-67
2022/10/11 03:28:55;;;;;;;31.95;20.48;;;12.50;99.90;;;;;;4787626;29;20066;-68
2022/10/11 03:31:22;;;;;;;31.30;21.42;;;12.50;99.90;;;;;;4787563;29;20463;-67
2022/10/11 03:33:48;;;;;;;31.27;21.40;;;12.60;99.90;;;;;;4788689;29;20035;-67
2022/10/11 03:36:14;;;;;;;29.23;18.88;;;12.60;99.90;;;;;;4789031;30;20138;-69
2022/10/11 03:38:40;;;;;;;33.95;20.00;;;12.50;99.90;;;;;;4786143;30;20031;-68
2022/10/11 03:41:06;;;;;;;29.75;19.67;;;12.50;99.90;;;;;;4784321;30;20055;-67
2022/10/11 03:43:32;;;;;;;32.03;20.73;;;12.50;99.90;;;;;;4786791;29;20394;-69
2022/10/11 03:45:58;;;;;;;29.27;19.38;;;12.60;99.90;;;;;;4781661;30;20042;-67
2022/10/11 03:48:24;;;;;;;26.30;19.48;;;12.60;99.90;;;;;;4772325;30;20023;-67
2022/10/11 03:50:49;;;;;;;27.30;18.70;;;12.70;99.90;;;;;;4788849;30;20042;-69
2022/10/11 03:53:15;;;;;;;31.48;19.80;;;12.70;99.90;;;;;;4788865;30;20035;-68
2022/10/11 03:55:41;;;;;;;32.65;20.15;;;12.70;99.90;;;;;;4787307;30;20160;-67
2022/10/11 03:58:07;;;;;;;31.58;20.40;;;12.70;99.90;;;;;;4788568;30;20411;-67
2022/10/11 04:00:34;;;;;;;30.05;18.95;;;12.60;99.90;;;;;;4788243;30;20058;-67
2022/10/11 04:03:02;;;;;;;28.38;18.70;;;12.50;99.90;;;;;;4788131;30;20031;-68
2022/10/11 04:05:29;;;;;;;26.13;18.13;;;12.50;99.90;;;;;;4788447;30;20023;-68
2022/10/11 04:07:55;;;;;;;29.45;19.70;;;12.60;99.90;;;;;;4787981;29;20372;-67
2022/10/11 04:10:21;;;;;;;26.55;18.92;;;12.50;99.90;;;;;;4787987;30;20042;-67
2022/10/11 04:12:47;;;;;;;31.67;18.00;;;12.60;99.90;;;;;;4787545;30;20027;-68
2022/10/11 04:15:13;;;;;;;28.58;18.42;;;12.70;99.90;;;;;;4788039;30;20501;-67
2022/10/11 04:17:39;;;;;;;25.02;18.48;;;12.70;99.90;;;;;;4787359;30;20037;-71
2022/10/11 04:20:06;;;;;;;26.75;18.23;;;12.70;99.90;;;;;;4782773;30;20063;-67
2022/10/11 04:22:32;;;;;;;29.27;18.92;;;12.70;99.90;;;;;;4781070;30;20499;-70
2022/10/11 04:24:58;;;;;;;29.77;20.10;;;12.80;99.90;;;;;;4787534;30;20039;-68
2022/10/11 04:27:27;;;;;;;29.05;19.05;;;12.80;99.90;;;;;;4782303;30;20031;-68
2022/10/11 04:29:53;;;;;;;28.05;20.00;;;12.80;99.90;;;;;;4785930;30;20540;-68
2022/10/11 04:32:19;;;;;;;29.17;19.25;;;12.80;99.90;;;;;;4787639;30;20035;-68
2022/10/11 04:34:45;;;;;;;32.40;20.80;;;12.70;99.90;;;;;;4775057;30;20399;-69
2022/10/11 04:37:10;;;;;;;36.65;20.50;;;12.60;99.90;;;;;;4783445;30;20027;-69
2022/10/11 04:39:37;;;;;;;30.92;19.17;;;12.60;99.90;;;;;;4787712;29;20047;-69
2022/10/11 04:42:03;;;;;;;27.45;20.52;;;12.60;99.90;;;;;;4787545;30;20122;-68
2022/10/11 04:44:29;;;;;;;34.90;22.08;;;12.50;99.90;;;;;;4780365;30;20067;-68
2022/10/11 04:46:55;;;;;;;34.92;22.23;;;12.50;99.90;;;;;;4786754;30;20030;-67
2022/10/11 04:49:22;;;;;;;31.20;23.05;;;12.50;99.90;;;;;;4787333;30;20028;-68
2022/10/11 04:51:47;;;;;;;31.70;23.17;;;12.50;99.90;;;;;;4787478;30;20023;-69
2022/10/11 04:54:13;;;;;;;37.35;24.42;;;12.50;99.90;;;;;;4787621;30;20042;-69
2022/10/11 04:56:39;;;;;;;38.25;25.20;;;12.50;99.90;;;;;;4787322;30;20034;-69
2022/10/11 04:59:05;;;;;;;32.05;23.50;;;12.40;99.90;;;;;;4787268;30;20067;-69
2022/10/11 05:01:31;;;;;;;32.20;22.73;;;12.50;99.90;;;;;;4786991;30;20039;-69
2022/10/11 05:03:56;;;;;;;34.22;23.52;;;12.50;99.90;;;;;;4787360;30;20070;-69
2022/10/11 05:06:22;;;;;;;33.85;24.08;;;12.40;99.90;;;;;;4787088;30;20466;-68
2022/10/11 05:08:48;;;;;;;31.13;22.65;;;12.40;99.90;;;;;;4786881;30;20039;-70
2022/10/11 05:11:15;;;;;;;32.95;24.00;;;12.40;99.90;;;;;;4787498;30;20030;-69
2022/10/11 05:13:42;;;;;;;37.05;27.88;;;12.40;99.90;;;;;;4787430;30;20023;-68
2022/10/11 05:16:08;;;;;;;40.97;29.73;;;12.40;99.90;;;;;;4787066;30;20104;-69
2022/10/11 05:18:34;;;;;;;42.17;28.75;;;12.40;99.90;;;;;;4787141;30;20043;-68
2022/10/11 05:21:03;;;;;;;38.97;31.73;;;12.60;99.90;;;;;;4784004;30;20085;-69
2022/10/11 05:23:30;;;;;;;39.78;28.45;;;12.60;99.90;;;;;;4787532;30;20042;-69
2022/10/11 05:25:57;;;;;;;34.08;24.92;;;12.60;99.90;;;;;;4787077;30;20050;-67
2022/10/11 05:28:23;;;;;;;35.05;24.52;;;12.60;99.90;;;;;;4780602;30;20384;-68
2022/10/11 05:30:49;;;;;;;35.50;23.10;;;12.60;99.90;;;;;;4787009;30;20035;-69
2022/10/11 05:33:15;;;;;;;33.65;22.73;;;12.60;99.90;;;;;;4786329;30;20066;-69
2022/10/11 05:35:40;;;;;;;35.05;25.67;;;12.60;99.90;;;;;;4786735;30;20157;-68
2022/10/11 05:38:06;;;;;;;31.63;24.38;;;12.60;99.90;;;;;;4786938;30;20550;-68
2022/10/11 05:40:32;;;;;;;30.65;23.73;;;12.60;99.90;;;;;;4787114;30;20035;-68
2022/10/11 05:42:58;;;;;;;35.80;25.30;;;12.70;99.90;;;;;;4786918;30;20040;-69
2022/10/11 05:45:24;;;;;;;35.28;24.45;;;12.60;99.90;;;;;;4787040;30;20026;-68
2022/10/11 05:47:50;;;;;;;35.00;25.42;;;12.60;99.90;;;;;;4786886;30;20494;-68
2022/10/11 05:50:16;;;;;;;33.75;24.63;;;12.60;99.90;;;;;;4786538;30;20107;-68
2022/10/11 05:52:42;;;;;;;33.90;23.50;;;12.60;99.90;;;;;;4786761;30;20042;-69
2022/10/11 05:55:08;;;;;;;37.25;26.35;;;12.70;99.90;;;;;;4786918;30;20035;-68
2022/10/11 05:57:34;;;;;;;36.05;24.83;;;12.60;99.90;;;;;;4786561;30;20035;-68
2022/10/11 05:59:59;;;;;;;33.50;24.45;;;12.60;99.90;;;;;;4788152;29;20130;-67
2022/10/11 06:02:25;;;;;;;33.58;23.75;;;12.70;99.90;;;;;;4796844;29;20035;-68
2022/10/11 06:04:51;;;;;;;33.20;23.58;;;12.60;99.90;;;;;;4786668;30;20027;-66
2022/10/11 06:07:17;;;;;;;33.17;23.52;;;12.60;99.90;;;;;;4786732;30;20064;-68
2022/10/11 06:09:43;;;;;;;37.38;25.75;;;12.60;99.90;;;;;;4786942;30;20493;-68
2022/10/11 06:12:09;;;;;;;44.50;30.42;;;12.70;99.90;;;;;;4786373;30;20118;-68
2022/10/11 06:14:34;;;;;;;41.38;29.65;;;12.70;99.90;;;;;;4786572;30;20031;-67
2022/10/11 06:17:00;;;;;;;42.45;29.45;;;12.80;99.90;;;;;;4797407;29;20031;-67
2022/10/11 06:19:26;;;;;;;34.05;27.42;;;12.90;99.90;;;;;;4788098;29;20032;-68
2022/10/11 06:21:52;;;;;;;32.88;23.42;;;13.00;99.90;;;;;;4786762;29;20055;-68
2022/10/11 06:24:18;;;;;;;34.88;25.70;;;13.10;99.90;;;;;;4798041;29;20027;-67
2022/10/11 06:26:44;;;;;;;30.42;21.23;;;13.10;99.90;;;;;;4786613;30;20042;-69
2022/10/11 06:29:10;;;;;;;33.88;21.77;;;13.20;99.90;;;;;;4785937;30;20038;-68
2022/10/11 06:31:36;;;;;;;31.85;22.10;;;13.30;99.90;;;;;;4781514;30;20671;-69
2022/10/11 06:34:02;;;;;;;35.72;22.80;;;13.30;99.90;;;;;;4783495;30;20042;-68
2022/10/11 06:36:28;;;;;;;30.52;21.27;;;13.40;99.90;;;;;;4784554;30;20111;-69
2022/10/11 06:38:54;;;;;;;35.63;22.45;;;13.40;99.90;;;;;;4783242;29;20043;-69
2022/10/11 06:41:23;;;;;;;28.83;20.08;;;13.60;99.90;;;;;;4788392;30;20113;-69
2022/10/11 06:43:49;;;;;;;30.27;21.50;;;13.70;99.90;;;;;;4788919;30;20071;-69
2022/10/11 06:46:18;;;;;;;32.08;20.50;;;13.80;99.90;;;;;;4788623;30;20063;-68
2022/10/11 06:48:44;;;;;;;29.67;21.67;;;13.80;99.90;;;;;;4785487;30;20031;-69
2022/10/11 06:51:11;;;;;;;26.92;19.83;;;13.90;99.90;;;;;;4789364;30;20593;-69
2022/10/11 06:53:38;;;;;;;30.20;20.35;;;14.00;99.90;;;;;;4789213;30;20023;-69
2022/10/11 06:56:10;;;;;;;31.77;20.55;;;14.00;99.90;;;;;;4789493;29;20039;-68
2022/10/11 06:58:37;;;;;;;41.63;20.85;;;14.20;99.90;;;;;;4789017;30;20108;-68
2022/10/11 07:01:05;;;;;;;29.85;20.02;;;14.20;99.90;;;;;;4788879;30;20050;-68
2022/10/11 07:03:31;;;;;;;30.83;20.83;;;14.40;99.90;;;;;;4788931;30;20084;-68
2022/10/11 07:06:04;;;;;;;30.23;20.65;;;14.60;99.90;;;;;;4788354;30;20027;-69
2022/10/11 07:08:30;;;;;;;29.52;19.75;;;14.60;99.90;;;;;;4788401;30;20042;-68
2022/10/11 07:11:25;;;;;;;32.22;20.10;;;14.70;99.90;;;;;;4788102;30;20032;-68
2022/10/11 07:13:58;;;;;;;29.95;20.10;;;14.80;99.90;;;;;;4788546;30;20078;-68
2022/10/11 07:16:25;;;;;;;34.03;19.90;;;14.90;99.90;;;;;;4788061;30;20077;-67
2022/10/11 07:18:54;;;;;;;29.70;20.30;;;15.00;99.90;;;;;;4787822;30;20024;-69
2022/10/11 07:21:20;;;;;;;29.50;19.80;;;15.00;99.90;;;;;;4779809;30;20047;-68
2022/10/11 07:23:46;;;;;;;30.35;19.88;;;15.10;99.90;;;;;;4779999;30;20209;-68
2022/10/11 07:26:11;;;;;;;30.23;19.92;;;15.10;99.90;;;;;;4782616;29;20031;-68
2022/10/11 07:28:39;;;;;;;29.73;21.65;;;15.20;99.90;;;;;;4782048;30;20032;-68
2022/10/11 07:31:06;;;;;;;30.83;22.70;;;15.30;99.90;;;;;;4784759;30;20478;-68
2022/10/11 07:33:32;;;;;;;31.45;22.52;;;15.20;99.90;;;;;;4785015;30;20072;-68
2022/10/11 07:35:59;;;;;;;31.95;22.33;;;15.30;99.90;;;;;;4784627;30;20043;-68
2022/10/11 07:38:25;;;;;;;33.20;21.73;;;15.10;99.90;;;;;;4783877;30;20060;-68
2022/10/11 07:40:51;;;;;;;29.30;19.80;;;15.20;99.90;;;;;;4788214;30;20399;-69
2022/10/11 07:43:17;;;;;;;31.00;22.45;;;15.20;99.90;;;;;;4787215;30;20027;-69
2022/10/11 07:45:47;;;;;;;42.42;22.63;;;15.20;99.90;;;;;;4788459;30;20128;-68
2022/10/11 07:48:14;;;;;;;28.40;20.42;;;15.20;99.90;;;;;;4779440;29;20402;-68
2022/10/11 07:50:40;;;;;;;36.92;20.33;;;15.10;99.90;;;;;;4782887;29;20027;-68
2022/10/11 07:53:06;;;;;;;31.88;20.42;;;15.20;99.90;;;;;;4780156;30;20455;-67
2022/10/11 07:55:39;;;;;;;30.15;21.63;;;15.10;99.90;;;;;;4788904;30;20054;-68
2022/10/11 07:58:14;;;;;;;27.30;20.00;;;15.10;99.90;;;;;;4786895;29;20101;-69
2022/10/11 08:00:41;;;;;;;32.80;21.23;;;15.20;99.90;;;;;;4783474;30;20388;-68
2022/10/11 08:03:09;;;;;;;30.65;22.20;;;15.20;99.90;;;;;;4775704;30;20027;-68
2022/10/11 08:05:37;;;;;;;37.67;22.02;;;15.10;99.90;;;;;;4787979;30;20103;-68
2022/10/11 08:08:03;;;;;;;32.10;20.42;;;14.90;99.90;;;;;;4787775;30;20031;-68
2022/10/11 08:10:29;;;;;;;37.25;24.30;;;15.00;99.90;;;;;;4787166;30;20027;-68
2022/10/11 08:12:54;;;;;;;33.30;21.63;;;14.90;99.90;;;;;;4787438;30;20130;-68
2022/10/11 08:15:21;;;;;;;34.50;22.77;;;14.80;99.90;;;;;;4788022;30;20441;-68
2022/10/11 08:17:46;;;;;;;32.92;23.65;;;14.80;99.90;;;;;;4783665;30;20031;-68
2022/10/11 08:20:13;;;;;;;31.90;22.80;;;14.90;99.90;;;;;;4786313;30;20102;-68
2022/10/11 08:22:38;;;;;;;30.13;23.30;;;14.90;99.90;;;;;;4786725;29;20494;-68
2022/10/11 08:25:05;;;;;;;34.75;25.05;;;14.90;99.90;;;;;;4785369;30;20036;-69
2022/10/11 08:27:31;;;;;;;31.10;24.27;;;15.00;99.90;;;;;;4782578;30;20049;-71
2022/10/11 08:29:56;;;;;;;37.30;25.42;;;15.00;99.90;;;;;;4778628;30;20031;-68
2022/10/11 08:32:22;;;;;;;40.03;25.75;;;15.00;99.90;;;;;;4778876;30;20035;-69
2022/10/11 08:34:48;;;;;;;35.03;24.38;;;15.10;99.90;;;;;;4788025;30;20115;-69
2022/10/11 08:37:14;;;;;;;35.85;26.05;;;15.20;99.90;;;;;;4788076;30;20027;-69
2022/10/11 08:39:40;;;;;;;36.42;24.90;;;15.30;99.90;;;;;;4787558;30;20043;-68
2022/10/11 08:42:14;;;;;;;31.55;24.30;;;15.30;99.90;;;;;;4787550;30;20038;-69
2022/10/11 08:44:45;;;;;;;37.63;25.85;;;15.30;99.90;;;;;;4788122;30;20027;-68
2022/10/11 08:47:26;;;;;;;35.83;27.85;;;15.30;99.90;;;;;;4787815;30;20035;-68
2022/10/11 08:49:53;;;;;;;37.90;25.55;;;15.30;99.90;;;;;;4787981;30;20042;-68
2022/10/11 08:52:42;;;;;;;41.42;27.25;;;15.30;99.90;;;;;;4787642;30;20034;-68
2022/10/11 08:55:16;;;;;;;36.35;27.63;;;15.30;99.90;;;;;;4780824;30;20066;-69
2022/10/11 08:57:49;;;;;;;39.13;27.60;;;15.50;99.90;;;;;;4787378;30;20043;-68
2022/10/11 09:00:18;;;;;;;38.58;29.13;;;15.60;99.90;;;;;;4787170;30;20406;-68
2022/10/11 09:03:35;;;;;;;39.70;28.52;;;15.70;99.90;;;;;;4786879;29;20046;-67
2022/10/11 09:06:20;;;;;;;38.17;28.70;;;15.60;99.90;;;;;;4787430;30;20084;-68
2022/10/11 09:08:52;;;;;;;41.72;30.85;;;15.70;99.90;;;;;;4786269;29;20074;-67
2022/10/11 09:11:57;;;;;;;43.30;31.80;;;15.70;99.90;;;;;;4787306;30;20046;-68
2022/10/11 09:14:36;;;;;;;41.53;29.92;;;15.80;99.90;;;;;;4787362;29;20038;-68
2022/10/11 09:17:27;;;;;;;42.15;30.45;;;15.70;99.90;;;;;;4787351;30;20432;-67
2022/10/11 09:19:55;;;;;;;41.45;30.80;;;15.70;99.90;;;;;;4787080;29;20035;-67
2022/10/11 09:22:48;;;;;;;41.45;31.13;;;15.70;99.90;;;;;;4786983;30;20051;-69
2022/10/11 09:25:16;;;;;;;43.10;29.23;;;15.70;99.90;;;;;;4787176;30;20035;-68
2022/10/11 09:27:53;;;;;;;44.25;31.98;;;15.80;99.90;;;;;;4787150;30;20382;-68
2022/10/11 09:30:19;;;;;;;45.88;33.00;;;15.80;99.90;;;;;;4786626;30;20039;-67
2022/10/11 09:33:07;;;;;;;44.47;33.67;;;15.90;99.90;;;;;;4786699;30;20034;-67
2022/10/11 09:35:41;;;;;;;49.83;34.55;;;15.80;99.90;;;;;;4786471;29;20467;-67
2022/10/11 09:38:17;;;;;;;44.90;33.35;;;16.00;99.90;;;;;;4786562;30;20046;-70
2022/10/11 09:41:14;;;;;;;44.17;33.05;;;16.10;99.90;;;;;;4786967;30;20050;-67
2022/10/11 09:43:39;;;;;;;48.53;33.45;;;16.10;99.90;;;;;;4784191;30;20432;-70
2022/10/11 09:46:38;;;;;;;49.30;35.47;;;16.20;99.90;;;;;;4784906;30;20027;-67
2022/10/11 09:49:11;;;;;;;50.72;36.45;;;16.30;99.90;;;;;;4786882;30;20365;-67
2022/10/11 09:51:37;;;;;;;51.78;36.15;;;16.30;99.90;;;;;;4786422;30;20070;-68
2022/10/11 09:54:05;;;;;;;54.70;39.15;;;16.40;99.90;;;;;;4786713;30;20402;-68
2022/10/11 09:56:39;;;;;;;50.55;36.08;;;16.50;99.90;;;;;;4786617;30;20043;-69
2022/10/11 09:59:34;;;;;;;49.35;36.20;;;16.60;99.90;;;;;;4786471;30;20055;-69
2022/10/11 10:02:11;;;;;;;50.13;35.88;;;16.70;99.90;;;;;;4786466;30;20548;-68
2022/10/11 10:04:54;;;;;;;53.20;37.45;;;16.90;99.90;;;;;;4790936;29;20112;-67
2022/10/11 10:07:20;;;;;;;48.35;35.60;;;16.90;99.90;;;;;;4789192;29;20042;-72
2022/10/11 10:09:46;;;;;;;46.30;32.67;;;16.90;99.90;;;;;;4788973;29;20066;-68
2022/10/11 10:12:18;;;;;;;45.45;31.15;;;16.90;99.90;;;;;;4789862;29;20474;-68
2022/10/11 10:14:55;;;;;;;49.03;35.53;;;16.90;99.90;;;;;;4796611;29;20068;-67
2022/10/11 10:17:21;;;;;;;48.17;36.10;;;17.00;99.90;;;;;;4788106;29;20391;-68
2022/10/11 10:19:52;;;;;;;48.38;36.50;;;17.00;99.90;;;;;;4788457;29;20031;-69
2022/10/11 10:22:20;;;;;;;48.17;33.75;;;17.10;99.90;;;;;;4789021;29;20130;-68
2022/10/11 10:24:49;;;;;;;47.67;35.20;;;17.20;99.90;;;;;;4778429;30;20506;-68
2022/10/11 10:27:28;;;;;;;46.55;33.63;;;17.30;99.90;;;;;;4789908;30;20055;-69
2022/10/11 10:30:08;;;;;;;44.08;32.72;;;17.40;99.90;;;;;;4788478;30;20497;-69
2022/10/11 10:32:41;;;;;;;46.20;31.90;;;17.40;99.90;;;;;;4789471;30;20035;-69
2022/10/11 10:35:49;;;;;;;44.13;30.73;;;17.60;99.90;;;;;;4790108;30;20043;-69
2022/10/11 10:38:36;;;;;;;48.00;31.70;;;17.60;99.90;;;;;;4789991;30;20035;-70
2022/10/11 10:41:12;;;;;;;42.58;31.67;;;17.60;99.90;;;;;;4790056;29;20055;-69
2022/10/11 10:43:41;;;;;;;47.35;33.13;;;17.70;99.90;;;;;;4789708;30;20043;-67
2022/10/11 10:46:28;;;;;;;41.05;31.13;;;17.70;99.90;;;;;;4789830;30;20089;-69
2022/10/11 10:49:07;;;;;;;43.22;33.85;;;17.80;99.90;;;;;;4789387;30;20031;-69
2022/10/11 10:51:56;;;;;;;45.45;33.40;;;17.80;99.90;;;;;;4789748;30;20039;-69
2022/10/11 10:54:22;;;;;;;40.97;30.83;;;17.90;99.90;;;;;;4699236;30;20073;-69
2022/10/11 10:57:14;;;;;;;43.88;32.70;;;18.00;99.90;;;;;;4699368;30;20509;-69
2022/10/11 11:00:23;;;;;;;41.65;31.00;;;18.00;99.90;;;;;;4699094;30;20057;-69
2022/10/11 11:03:02;;;;;;;43.40;31.73;;;18.00;99.90;;;;;;4682079;30;20088;-70
2022/10/11 11:05:50;;;;;;;42.88;30.92;;;18.00;99.90;;;;;;4680972;30;20058;-70
2022/10/11 11:08:45;;;;;;;53.25;32.10;;;18.10;99.90;;;;;;4673484;30;20129;-69
2022/10/11 11:11:20;;;;;;;45.50;32.58;;;18.20;99.90;;;;;;4681722;30;20474;-69
2022/10/11 11:14:00;;;;;;;42.70;30.08;;;18.20;99.90;;;;;;4681910;30;20084;-69
2022/10/11 11:17:05;;;;;;;36.90;29.45;;;18.00;99.90;;;;;;4681820;30;20120;-69
2022/10/11 11:19:37;;;;;;;38.08;28.63;;;18.20;99.90;;;;;;4681611;30;20081;-68
2022/10/11 11:22:19;;;;;;;45.55;29.95;;;18.20;99.90;;;;;;4681246;30;20427;-69
2022/10/11 11:25:06;;;;;;;43.25;32.70;;;18.20;99.90;;;;;;4681698;30;20054;-69
2022/10/11 11:28:09;;;;;;;40.45;30.60;;;18.30;99.90;;;;;;4681268;30;20038;-69
2022/10/11 11:30:37;;;;;;;44.03;30.17;;;18.20;99.90;;;;;;4692318;30;20052;-69
2022/10/11 11:33:18;;;;;;;39.03;29.17;;;18.30;99.90;;;;;;4750614;30;20119;-69
2022/10/11 11:35:52;;;;;;;44.00;31.13;;;18.30;99.90;;;;;;4751018;30;20047;-69
2022/10/11 11:38:27;;;;;;;40.30;30.92;;;18.30;99.90;;;;;;4767429;30;20050;-69
2022/10/11 11:41:01;;;;;;;43.92;31.95;;;18.30;99.90;;;;;;4789008;29;20047;-69
2022/10/11 11:43:38;;;;;;;43.80;30.60;;;18.30;99.90;;;;;;4788456;29;20399;-69
2022/10/11 11:46:37;;;;;;;45.65;30.42;;;18.40;99.90;;;;;;4789004;29;20123;-69
2022/10/11 11:49:13;;;;;;;39.28;29.40;;;18.40;99.90;;;;;;4788998;30;20368;-69
2022/10/11 11:51:43;;;;;;;42.25;29.98;;;18.50;99.90;;;;;;4788591;30;20111;-69
2022/10/11 11:54:21;;;;;;;40.20;29.45;;;18.50;99.90;;;;;;4788461;30;20096;-69
2022/10/11 11:56:52;;;;;;;42.10;31.20;;;18.60;99.90;;;;;;4788596;30;20032;-68
2022/10/11 11:59:33;;;;;;;51.63;31.30;;;18.70;99.90;;;;;;4788146;30;20047;-68
2022/10/11 12:02:20;;;;;;;45.45;31.75;;;18.80;99.90;;;;;;4788599;30;20054;-69
2022/10/11 12:04:48;;;;;;;43.67;32.55;;;18.80;99.90;;;;;;4788480;30;20039;-69
2022/10/11 12:07:19;;;;;;;50.08;34.00;;;18.80;99.90;;;;;;4788597;30;20565;-69
2022/10/11 12:09:53;;;;;;;51.22;33.78;;;18.80;99.90;;;;;;4788379;30;20114;-69
2022/10/11 12:12:32;;;;;;;46.00;34.55;;;18.90;99.90;;;;;;4788517;30;20065;-69
2022/10/11 12:15:25;;;;;;;50.05;35.35;;;19.00;99.90;;;;;;4788190;30;20062;-68
2022/10/11 12:17:56;;;;;;;51.22;36.38;;;18.90;99.90;;;;;;4784319;29;20097;-69
2022/10/11 12:20:36;;;;;;;51.05;37.90;;;18.80;99.90;;;;;;4788327;30;20110;-69
2022/10/11 12:23:29;;;;;;;46.88;36.50;;;19.00;99.90;;;;;;4787612;30;20386;-68
2022/10/11 12:26:26;;;;;;;49.67;37.25;;;19.00;99.90;;;;;;4788148;30;20039;-69
2022/10/11 12:29:15;;;;;;;56.40;38.60;;;19.10;99.90;;;;;;4787965;30;20062;-69
2022/10/11 12:31:42;;;;;;;53.13;39.35;;;19.20;99.90;;;;;;4787764;30;20373;-69
2022/10/11 12:34:08;;;;;;;52.58;38.72;;;19.40;99.90;;;;;;4788041;30;20353;-69
2022/10/11 12:36:40;;;;;;;54.00;39.85;;;19.40;99.90;;;;;;4787838;29;20042;-68
2022/10/11 12:39:18;;;;;;;52.90;40.08;;;19.50;99.90;;;;;;4787556;29;20043;-68
2022/10/11 12:41:49;;;;;;;53.45;40.38;;;19.50;99.90;;;;;;4787227;30;20424;-69
2022/10/11 12:44:22;;;;;;;48.38;39.63;;;19.70;99.90;;;;;;4787816;30;20038;-69
2022/10/11 12:46:53;;;;;;;49.28;38.53;;;19.70;99.90;;;;;;4787648;30;20387;-68
2022/10/11 12:49:49;;;;;;;50.22;38.33;;;19.80;99.90;;;;;;4787772;30;20115;-69
2022/10/11 12:52:33;;;;;;;53.92;38.83;;;19.90;99.90;;;;;;4787897;30;20031;-69